sensor_id;sensor_type;location;lat;lon;timestamp;temperature;humidity
11132;DHT22;5620;53.570;9.718;2022-12-07T00:01:24;4.60;1.00
11132;DHT22;5620;53.570;9.718;2022-12-07T00:03:53;4.80;4.10
11132;DHT22;5620;53.570;9.718;2022-12-07T00:06:20;4.80;24.20
11132;DHT22;5620;53.570;9.718;2022-12-07T00:08:47;4.90;25.10
11132;DHT22;5620;53.570;9.718;2022-12-07T00:11:16;5.00;1.00
11132;DHT22;5620;53.570;9.718;2022-12-07T00:13:42;5.00;1.00
11132;DHT22;5620;53.570;9.718;2022-12-07T00:16:13;4.80;99.90
11132;DHT22;5620;53.570;9.718;2022-12-07T00:18:41;4.70;1.00
11132;DHT22;5620;53.570;9.718;2022-12-07T00:21:28;4.60;1.00
11132;DHT22;5620;53.570;9.718;2022-12-07T00:23:56;4.50;1.00
11132;DHT22;5620;53.570;9.718;2022-12-07T00:26:26;4.40;1.00
11132;DHT22;5620;53.570;9.718;2022-12-07T00:29:01;4.40;99.90
11132;DHT22;5620;53.570;9.718;2022-12-07T00:31:29;4.50;99.90
11132;DHT22;5620;53.570;9.718;2022-12-07T00:33:56;4.60;99.90
11132;DHT22;5620;53.570;9.718;2022-12-07T00:36:24;4.70;99.90
11132;DHT22;5620;53.570;9.718;2022-12-07T00:38:50;4.80;99.90
11132;DHT22;5620;53.570;9.718;2022-12-07T00:41:22;4.80;99.90
11132;DHT22;5620;53.570;9.718;2022-12-07T00:43:49;4.80;99.90
11132;DHT22;5620;53.570;9.718;2022-12-07T00:46:17;4.90;99.90
11132;DHT22;5620;53.570;9.718;2022-12-07T00:48:44;4.90;99.90
11132;DHT22;5620;53.570;9.718;2022-12-07T00:51:12;4.90;99.90
11132;DHT22;5620;53.570;9.718;2022-12-07T00:53:40;4.80;99.90
11132;DHT22;5620;53.570;9.718;2022-12-07T00:56:13;4.70;99.90
11132;DHT22;5620;53.570;9.718;2022-12-07T00:58:42;4.70;99.90
11132;DHT22;5620;53.570;9.718;2022-12-07T01:01:10;4.70;99.90
11132;DHT22;5620;53.570;9.718;2022-12-07T01:03:40;4.60;99.90
11132;DHT22;5620;53.570;9.718;2022-12-07T01:06:06;4.50;99.90
11132;DHT22;5620;53.570;9.718;2022-12-07T01:08:34;4.40;1.00
11132;DHT22;5620;53.570;9.718;2022-12-07T01:11:07;4.40;1.00
11132;DHT22;5620;53.570;9.718;2022-12-07T01:13:35;4.40;33.70
11132;DHT22;5620;53.570;9.718;2022-12-07T01:16:03;4.40;99.90
11132;DHT22;5620;53.570;9.718;2022-12-07T01:18:32;4.40;99.90
11132;DHT22;5620;53.570;9.718;2022-12-07T01:21:11;4.40;99.90
11132;DHT22;5620;53.570;9.718;2022-12-07T01:23:37;4.30;99.90
11132;DHT22;5620;53.570;9.718;2022-12-07T01:26:08;4.30;99.90
11132;DHT22;5620;53.570;9.718;2022-12-07T01:28:45;4.20;99.90
11132;DHT22;5620;53.570;9.718;2022-12-07T01:31:14;4.20;99.90
11132;DHT22;5620;53.570;9.718;2022-12-07T01:33:44;4.20;1.00
11132;DHT22;5620;53.570;9.718;2022-12-07T01:39:08;4.10;1.00
11132;DHT22;5620;53.570;9.718;2022-12-07T01:41:37;4.00;6.30
11132;DHT22;5620;53.570;9.718;2022-12-07T01:44:23;4.00;71.90
11132;DHT22;5620;53.570;9.718;2022-12-07T01:47:10;4.00;99.90
11132;DHT22;5620;53.570;9.718;2022-12-07T01:49:54;4.00;99.90
11132;DHT22;5620;53.570;9.718;2022-12-07T01:52:39;3.90;99.90
11132;DHT22;5620;53.570;9.718;2022-12-07T01:55:11;3.90;1.00
11132;DHT22;5620;53.570;9.718;2022-12-07T01:57:43;3.90;1.00
11132;DHT22;5620;53.570;9.718;2022-12-07T02:00:13;3.90;1.00
11132;DHT22;5620;53.570;9.718;2022-12-07T02:03:04;3.90;30.60
11132;DHT22;5620;53.570;9.718;2022-12-07T02:05:35;3.90;99.90
11132;DHT22;5620;53.570;9.718;2022-12-07T02:08:03;3.90;99.90
11132;DHT22;5620;53.570;9.718;2022-12-07T02:10:32;3.90;99.90
11132;DHT22;5620;53.570;9.718;2022-12-07T02:13:21;3.90;99.90
11132;DHT22;5620;53.570;9.718;2022-12-07T02:21:53;3.90;1.00
11132;DHT22;5620;53.570;9.718;2022-12-07T02:27:46;3.80;6.90
11132;DHT22;5620;53.570;9.718;2022-12-07T02:30:16;3.80;7.30
11132;DHT22;5620;53.570;9.718;2022-12-07T02:38:18;3.70;99.90
11132;DHT22;5620;53.570;9.718;2022-12-07T02:40:52;3.70;99.90
11132;DHT22;5620;53.570;9.718;2022-12-07T02:46:23;3.60;99.90
11132;DHT22;5620;53.570;9.718;2022-12-07T02:48:51;3.60;99.90
11132;DHT22;5620;53.570;9.718;2022-12-07T02:51:19;3.50;99.90
11132;DHT22;5620;53.570;9.718;2022-12-07T02:53:45;3.50;99.90
11132;DHT22;5620;53.570;9.718;2022-12-07T03:05:36;3.40;1.00
11132;DHT22;5620;53.570;9.718;2022-12-07T03:11:10;3.40;1.00
11132;DHT22;5620;53.570;9.718;2022-12-07T03:14:03;3.50;1.00
11132;DHT22;5620;53.570;9.718;2022-12-07T03:16:37;3.50;1.00
11132;DHT22;5620;53.570;9.718;2022-12-07T03:19:10;3.40;1.00
11132;DHT22;5620;53.570;9.718;2022-12-07T03:22:07;3.40;1.00
11132;DHT22;5620;53.570;9.718;2022-12-07T03:24:42;3.40;1.00
11132;DHT22;5620;53.570;9.718;2022-12-07T03:27:14;3.30;1.00
11132;DHT22;5620;53.570;9.718;2022-12-07T03:30:02;3.30;1.00
11132;DHT22;5620;53.570;9.718;2022-12-07T03:32:48;3.30;1.00
11132;DHT22;5620;53.570;9.718;2022-12-07T03:35:37;3.30;1.00
11132;DHT22;5620;53.570;9.718;2022-12-07T03:38:27;3.30;33.20
11132;DHT22;5620;53.570;9.718;2022-12-07T03:41:05;3.20;54.10
11132;DHT22;5620;53.570;9.718;2022-12-07T03:43:36;3.20;1.00
11132;DHT22;5620;53.570;9.718;2022-12-07T03:49:16;3.10;21.70
11132;DHT22;5620;53.570;9.718;2022-12-07T03:54:36;3.10;2.40
11132;DHT22;5620;53.570;9.718;2022-12-07T03:57:03;3.10;1.00
11132;DHT22;5620;53.570;9.718;2022-12-07T03:59:31;3.10;1.00
11132;DHT22;5620;53.570;9.718;2022-12-07T04:02:12;3.10;1.00
11132;DHT22;5620;53.570;9.718;2022-12-07T04:04:39;3.10;1.00
11132;DHT22;5620;53.570;9.718;2022-12-07T04:07:08;3.10;1.00
11132;DHT22;5620;53.570;9.718;2022-12-07T04:09:36;3.10;1.00
11132;DHT22;5620;53.570;9.718;2022-12-07T04:12:01;3.10;1.00
11132;DHT22;5620;53.570;9.718;2022-12-07T04:14:27;3.20;1.00
11132;DHT22;5620;53.570;9.718;2022-12-07T04:16:58;3.30;1.00
11132;DHT22;5620;53.570;9.718;2022-12-07T04:19:28;3.30;1.00
11132;DHT22;5620;53.570;9.718;2022-12-07T04:21:56;3.40;99.90
11132;DHT22;5620;53.570;9.718;2022-12-07T04:24:23;3.40;99.90
11132;DHT22;5620;53.570;9.718;2022-12-07T04:26:48;3.40;99.90
11132;DHT22;5620;53.570;9.718;2022-12-07T04:29:17;3.50;95.00
11132;DHT22;5620;53.570;9.718;2022-12-07T04:31:46;3.50;6.80
11132;DHT22;5620;53.570;9.718;2022-12-07T04:34:13;3.50;1.00
11132;DHT22;5620;53.570;9.718;2022-12-07T04:36:39;3.60;1.00
11132;DHT22;5620;53.570;9.718;2022-12-07T04:39:07;3.60;1.00
11132;DHT22;5620;53.570;9.718;2022-12-07T04:41:35;3.70;1.00
11132;DHT22;5620;53.570;9.718;2022-12-07T04:44:03;3.70;99.90
11132;DHT22;5620;53.570;9.718;2022-12-07T04:46:34;3.80;99.90
11132;DHT22;5620;53.570;9.718;2022-12-07T04:49:01;3.80;22.00
11132;DHT22;5620;53.570;9.718;2022-12-07T04:51:28;3.80;1.00
11132;DHT22;5620;53.570;9.718;2022-12-07T04:53:56;3.70;1.00
11132;DHT22;5620;53.570;9.718;2022-12-07T04:56:23;3.70;99.90
11132;DHT22;5620;53.570;9.718;2022-12-07T04:58:51;3.60;99.90
11132;DHT22;5620;53.570;9.718;2022-12-07T05:01:17;3.60;99.90
11132;DHT22;5620;53.570;9.718;2022-12-07T05:03:44;3.50;99.90
11132;DHT22;5620;53.570;9.718;2022-12-07T05:06:12;3.50;99.90
11132;DHT22;5620;53.570;9.718;2022-12-07T05:08:39;3.40;99.90
11132;DHT22;5620;53.570;9.718;2022-12-07T05:11:07;3.40;99.90
11132;DHT22;5620;53.570;9.718;2022-12-07T05:13:34;3.30;99.90
11132;DHT22;5620;53.570;9.718;2022-12-07T05:16:02;3.30;99.90
11132;DHT22;5620;53.570;9.718;2022-12-07T05:18:29;3.30;99.90
11132;DHT22;5620;53.570;9.718;2022-12-07T05:20:55;3.40;99.90
11132;DHT22;5620;53.570;9.718;2022-12-07T05:23:21;3.40;99.90
11132;DHT22;5620;53.570;9.718;2022-12-07T05:25:51;3.40;99.90
11132;DHT22;5620;53.570;9.718;2022-12-07T05:28:17;3.40;64.60
11132;DHT22;5620;53.570;9.718;2022-12-07T05:30:44;3.40;1.00
11132;DHT22;5620;53.570;9.718;2022-12-07T05:33:12;3.40;1.00
11132;DHT22;5620;53.570;9.718;2022-12-07T05:35:39;3.40;1.00
11132;DHT22;5620;53.570;9.718;2022-12-07T05:38:06;3.40;1.00
11132;DHT22;5620;53.570;9.718;2022-12-07T05:40:31;3.40;1.00
11132;DHT22;5620;53.570;9.718;2022-12-07T05:42:57;3.40;1.00
11132;DHT22;5620;53.570;9.718;2022-12-07T05:45:22;3.50;1.00
11132;DHT22;5620;53.570;9.718;2022-12-07T05:47:49;3.50;1.00
11132;DHT22;5620;53.570;9.718;2022-12-07T05:50:17;3.60;1.00
11132;DHT22;5620;53.570;9.718;2022-12-07T05:52:44;3.60;1.00
11132;DHT22;5620;53.570;9.718;2022-12-07T05:55:11;3.50;99.90
11132;DHT22;5620;53.570;9.718;2022-12-07T05:57:36;3.50;99.90
11132;DHT22;5620;53.570;9.718;2022-12-07T06:00:04;3.50;99.90
11132;DHT22;5620;53.570;9.718;2022-12-07T06:02:31;3.40;99.90
11132;DHT22;5620;53.570;9.718;2022-12-07T06:04:57;3.30;99.90
11132;DHT22;5620;53.570;9.718;2022-12-07T06:07:24;3.30;99.90
11132;DHT22;5620;53.570;9.718;2022-12-07T06:09:49;3.30;99.90
11132;DHT22;5620;53.570;9.718;2022-12-07T06:12:15;3.30;1.00
11132;DHT22;5620;53.570;9.718;2022-12-07T06:14:40;3.30;1.00
11132;DHT22;5620;53.570;9.718;2022-12-07T06:17:07;3.30;1.00
11132;DHT22;5620;53.570;9.718;2022-12-07T06:19:34;3.30;1.00
11132;DHT22;5620;53.570;9.718;2022-12-07T06:22:01;3.30;1.00
11132;DHT22;5620;53.570;9.718;2022-12-07T06:24:27;3.30;1.00
11132;DHT22;5620;53.570;9.718;2022-12-07T06:26:54;3.20;1.00
11132;DHT22;5620;53.570;9.718;2022-12-07T06:29:19;3.20;1.00
11132;DHT22;5620;53.570;9.718;2022-12-07T06:31:46;3.30;1.00
11132;DHT22;5620;53.570;9.718;2022-12-07T06:34:15;3.30;1.00
11132;DHT22;5620;53.570;9.718;2022-12-07T06:36:41;3.40;11.80
11132;DHT22;5620;53.570;9.718;2022-12-07T06:39:08;3.50;40.00
11132;DHT22;5620;53.570;9.718;2022-12-07T06:41:34;3.50;1.00
11132;DHT22;5620;53.570;9.718;2022-12-07T06:44:02;3.60;1.00
11132;DHT22;5620;53.570;9.718;2022-12-07T06:46:30;3.60;1.00
11132;DHT22;5620;53.570;9.718;2022-12-07T06:48:56;3.60;1.00
11132;DHT22;5620;53.570;9.718;2022-12-07T06:51:22;3.60;1.00
11132;DHT22;5620;53.570;9.718;2022-12-07T06:53:49;3.70;1.00
11132;DHT22;5620;53.570;9.718;2022-12-07T06:56:15;3.70;1.00
11132;DHT22;5620;53.570;9.718;2022-12-07T06:58:42;3.70;1.00
11132;DHT22;5620;53.570;9.718;2022-12-07T07:01:17;3.80;1.00
11132;DHT22;5620;53.570;9.718;2022-12-07T07:03:44;3.80;1.00
11132;DHT22;5620;53.570;9.718;2022-12-07T07:06:11;3.80;1.00
11132;DHT22;5620;53.570;9.718;2022-12-07T07:08:37;3.80;1.00
11132;DHT22;5620;53.570;9.718;2022-12-07T07:11:03;3.90;1.00
11132;DHT22;5620;53.570;9.718;2022-12-07T07:13:29;4.00;1.00
11132;DHT22;5620;53.570;9.718;2022-12-07T07:15:56;4.00;1.00
11132;DHT22;5620;53.570;9.718;2022-12-07T07:18:23;4.00;99.90
11132;DHT22;5620;53.570;9.718;2022-12-07T07:20:52;4.10;99.90
11132;DHT22;5620;53.570;9.718;2022-12-07T07:23:20;4.10;99.90
11132;DHT22;5620;53.570;9.718;2022-12-07T07:25:47;4.10;99.90
11132;DHT22;5620;53.570;9.718;2022-12-07T07:28:16;4.00;99.90
11132;DHT22;5620;53.570;9.718;2022-12-07T07:30:43;4.00;99.90
11132;DHT22;5620;53.570;9.718;2022-12-07T07:33:11;4.00;97.90
11132;DHT22;5620;53.570;9.718;2022-12-07T07:35:41;4.00;99.90
11132;DHT22;5620;53.570;9.718;2022-12-07T07:38:07;4.00;99.90
11132;DHT22;5620;53.570;9.718;2022-12-07T07:40:34;4.00;99.90
11132;DHT22;5620;53.570;9.718;2022-12-07T07:43:00;4.00;99.90
11132;DHT22;5620;53.570;9.718;2022-12-07T07:45:27;4.10;99.90
11132;DHT22;5620;53.570;9.718;2022-12-07T07:47:53;4.00;93.30
11132;DHT22;5620;53.570;9.718;2022-12-07T07:50:19;4.10;74.70
11132;DHT22;5620;53.570;9.718;2022-12-07T07:52:46;4.10;67.40
11132;DHT22;5620;53.570;9.718;2022-12-07T07:55:13;4.10;85.90
11132;DHT22;5620;53.570;9.718;2022-12-07T07:57:42;4.10;79.60
11132;DHT22;5620;53.570;9.718;2022-12-07T08:00:13;4.20;1.00
11132;DHT22;5620;53.570;9.718;2022-12-07T08:02:40;4.20;1.00
11132;DHT22;5620;53.570;9.718;2022-12-07T08:05:09;4.30;1.00
11132;DHT22;5620;53.570;9.718;2022-12-07T08:07:36;4.30;1.00
11132;DHT22;5620;53.570;9.718;2022-12-07T08:10:03;4.40;1.00
11132;DHT22;5620;53.570;9.718;2022-12-07T08:12:30;4.40;1.00
11132;DHT22;5620;53.570;9.718;2022-12-07T08:14:58;4.50;1.00
11132;DHT22;5620;53.570;9.718;2022-12-07T08:17:26;4.60;1.00
11132;DHT22;5620;53.570;9.718;2022-12-07T08:19:52;4.60;1.00
11132;DHT22;5620;53.570;9.718;2022-12-07T08:22:17;4.70;1.00
11132;DHT22;5620;53.570;9.718;2022-12-07T08:24:43;4.80;1.00
11132;DHT22;5620;53.570;9.718;2022-12-07T08:27:10;4.90;1.00
11132;DHT22;5620;53.570;9.718;2022-12-07T08:29:36;4.90;1.00
11132;DHT22;5620;53.570;9.718;2022-12-07T08:32:03;5.00;99.90
11132;DHT22;5620;53.570;9.718;2022-12-07T08:34:33;5.00;99.90
11132;DHT22;5620;53.570;9.718;2022-12-07T08:37:01;5.10;99.90
11132;DHT22;5620;53.570;9.718;2022-12-07T08:39:29;5.20;99.90
11132;DHT22;5620;53.570;9.718;2022-12-07T08:41:57;5.30;99.40
11132;DHT22;5620;53.570;9.718;2022-12-07T08:44:24;5.30;93.00
11132;DHT22;5620;53.570;9.718;2022-12-07T08:47:01;5.40;99.90
11132;DHT22;5620;53.570;9.718;2022-12-07T08:49:47;5.50;11.30
11132;DHT22;5620;53.570;9.718;2022-12-07T08:52:15;5.60;1.00
11132;DHT22;5620;53.570;9.718;2022-12-07T08:54:42;5.60;1.00
11132;DHT22;5620;53.570;9.718;2022-12-07T08:57:08;5.70;1.00
11132;DHT22;5620;53.570;9.718;2022-12-07T08:59:38;5.70;1.00
11132;DHT22;5620;53.570;9.718;2022-12-07T09:02:05;5.70;99.90
11132;DHT22;5620;53.570;9.718;2022-12-07T09:04:32;5.70;99.90
11132;DHT22;5620;53.570;9.718;2022-12-07T09:06:59;5.80;99.90
11132;DHT22;5620;53.570;9.718;2022-12-07T09:09:26;5.80;99.90
11132;DHT22;5620;53.570;9.718;2022-12-07T09:11:52;5.90;99.90
11132;DHT22;5620;53.570;9.718;2022-12-07T09:14:18;5.90;87.70
11132;DHT22;5620;53.570;9.718;2022-12-07T09:16:44;5.90;1.00
11132;DHT22;5620;53.570;9.718;2022-12-07T09:19:11;5.90;1.00
11132;DHT22;5620;53.570;9.718;2022-12-07T09:21:38;5.90;1.00
11132;DHT22;5620;53.570;9.718;2022-12-07T09:24:05;5.90;1.00
11132;DHT22;5620;53.570;9.718;2022-12-07T09:26:30;5.90;99.90
11132;DHT22;5620;53.570;9.718;2022-12-07T09:28:56;6.00;99.90
11132;DHT22;5620;53.570;9.718;2022-12-07T09:31:21;6.00;99.90
11132;DHT22;5620;53.570;9.718;2022-12-07T09:33:47;6.00;99.90
11132;DHT22;5620;53.570;9.718;2022-12-07T09:36:19;6.10;99.90
11132;DHT22;5620;53.570;9.718;2022-12-07T09:38:45;6.10;99.90
11132;DHT22;5620;53.570;9.718;2022-12-07T09:41:11;6.20;77.20
11132;DHT22;5620;53.570;9.718;2022-12-07T09:43:39;6.20;1.00
11132;DHT22;5620;53.570;9.718;2022-12-07T09:46:11;6.30;1.00
11132;DHT22;5620;53.570;9.718;2022-12-07T09:48:39;6.40;1.00
11132;DHT22;5620;53.570;9.718;2022-12-07T09:51:34;6.40;1.00
11132;DHT22;5620;53.570;9.718;2022-12-07T09:54:00;6.60;1.00
11132;DHT22;5620;53.570;9.718;2022-12-07T09:56:30;6.70;1.00
11132;DHT22;5620;53.570;9.718;2022-12-07T09:59:01;6.70;99.90
11132;DHT22;5620;53.570;9.718;2022-12-07T10:01:32;6.70;99.90
11132;DHT22;5620;53.570;9.718;2022-12-07T10:04:20;6.80;99.90
11132;DHT22;5620;53.570;9.718;2022-12-07T10:06:48;6.80;99.90
11132;DHT22;5620;53.570;9.718;2022-12-07T10:09:19;6.80;99.90
11132;DHT22;5620;53.570;9.718;2022-12-07T10:12:05;6.80;99.90
11132;DHT22;5620;53.570;9.718;2022-12-07T10:14:35;6.70;99.90
11132;DHT22;5620;53.570;9.718;2022-12-07T10:20:26;6.60;99.90
11132;DHT22;5620;53.570;9.718;2022-12-07T10:23:08;6.70;99.90
11132;DHT22;5620;53.570;9.718;2022-12-07T10:25:39;6.70;99.90
11132;DHT22;5620;53.570;9.718;2022-12-07T10:28:17;6.60;77.40
11132;DHT22;5620;53.570;9.718;2022-12-07T10:31:22;6.60;20.70
11132;DHT22;5620;53.570;9.718;2022-12-07T10:34:00;6.60;1.00
11132;DHT22;5620;53.570;9.718;2022-12-07T10:36:37;6.70;1.00
11132;DHT22;5620;53.570;9.718;2022-12-07T10:39:14;6.70;1.00
11132;DHT22;5620;53.570;9.718;2022-12-07T10:42:00;6.80;1.00
11132;DHT22;5620;53.570;9.718;2022-12-07T10:44:31;6.90;1.00
11132;DHT22;5620;53.570;9.718;2022-12-07T10:53:06;7.00;1.00
11132;DHT22;5620;53.570;9.718;2022-12-07T11:01:31;7.40;1.00
11132;DHT22;5620;53.570;9.718;2022-12-07T11:10:41;7.50;99.90
11132;DHT22;5620;53.570;9.718;2022-12-07T11:13:10;7.50;99.90
11132;DHT22;5620;53.570;9.718;2022-12-07T11:16:04;7.50;99.90
11132;DHT22;5620;53.570;9.718;2022-12-07T11:19:04;7.40;99.90
11132;DHT22;5620;53.570;9.718;2022-12-07T11:21:56;7.40;99.90
11132;DHT22;5620;53.570;9.718;2022-12-07T11:25:01;7.40;99.90
11132;DHT22;5620;53.570;9.718;2022-12-07T11:36:51;7.70;99.90
11132;DHT22;5620;53.570;9.718;2022-12-07T11:39:35;7.80;99.90
11132;DHT22;5620;53.570;9.718;2022-12-07T11:48:03;7.70;99.90
11132;DHT22;5620;53.570;9.718;2022-12-07T11:53:38;7.50;92.80
11132;DHT22;5620;53.570;9.718;2022-12-07T11:56:17;7.40;91.70
11132;DHT22;5620;53.570;9.718;2022-12-07T12:02:14;7.50;94.50
11132;DHT22;5620;53.570;9.718;2022-12-07T12:07:32;7.40;88.60
11132;DHT22;5620;53.570;9.718;2022-12-07T12:10:33;7.40;74.70
11132;DHT22;5620;53.570;9.718;2022-12-07T12:13:32;7.30;78.50
11132;DHT22;5620;53.570;9.718;2022-12-07T12:21:53;7.60;90.80
11132;DHT22;5620;53.570;9.718;2022-12-07T12:24:25;7.80;91.10
11132;DHT22;5620;53.570;9.718;2022-12-07T12:27:05;7.90;84.50
11132;DHT22;5620;53.570;9.718;2022-12-07T12:29:38;8.10;78.50
11132;DHT22;5620;53.570;9.718;2022-12-07T12:37:41;8.90;60.60
11132;DHT22;5620;53.570;9.718;2022-12-07T12:41:01;9.50;61.10
11132;DHT22;5620;53.570;9.718;2022-12-07T12:43:40;9.80;4.40
11132;DHT22;5620;53.570;9.718;2022-12-07T12:57:36;10.10;1.00
11132;DHT22;5620;53.570;9.718;2022-12-07T13:00:21;10.10;1.00
11132;DHT22;5620;53.570;9.718;2022-12-07T13:02:53;9.90;1.00
11132;DHT22;5620;53.570;9.718;2022-12-07T13:05:23;9.70;1.00
11132;DHT22;5620;53.570;9.718;2022-12-07T13:15:49;8.50;1.00
11132;DHT22;5620;53.570;9.718;2022-12-07T13:29:14;7.50;1.00
11132;DHT22;5620;53.570;9.718;2022-12-07T13:31:57;7.40;1.00
11132;DHT22;5620;53.570;9.718;2022-12-07T13:34:41;7.40;1.00
11132;DHT22;5620;53.570;9.718;2022-12-07T13:40:01;7.30;1.00
11132;DHT22;5620;53.570;9.718;2022-12-07T13:43:00;7.30;1.00
11132;DHT22;5620;53.570;9.718;2022-12-07T13:45:47;7.20;1.00
11132;DHT22;5620;53.570;9.718;2022-12-07T13:48:46;7.30;1.00
11132;DHT22;5620;53.570;9.718;2022-12-07T13:51:36;7.40;1.00
11132;DHT22;5620;53.570;9.718;2022-12-07T13:54:10;7.50;1.00
11132;DHT22;5620;53.570;9.718;2022-12-07T13:56:37;7.50;1.00
11132;DHT22;5620;53.570;9.718;2022-12-07T13:59:12;7.50;1.00
11132;DHT22;5620;53.570;9.718;2022-12-07T14:01:41;7.50;1.00
11132;DHT22;5620;53.570;9.718;2022-12-07T14:04:38;7.60;1.00
11132;DHT22;5620;53.570;9.718;2022-12-07T14:07:26;7.60;1.00
11132;DHT22;5620;53.570;9.718;2022-12-07T14:13:34;7.50;1.00
11132;DHT22;5620;53.570;9.718;2022-12-07T14:18:53;7.30;1.00
11132;DHT22;5620;53.570;9.718;2022-12-07T14:21:25;7.10;1.00
11132;DHT22;5620;53.570;9.718;2022-12-07T14:24:12;7.00;1.00
11132;DHT22;5620;53.570;9.718;2022-12-07T14:26:39;6.90;1.00
11132;DHT22;5620;53.570;9.718;2022-12-07T14:29:32;6.80;1.00
11132;DHT22;5620;53.570;9.718;2022-12-07T14:32:26;6.70;1.00
11132;DHT22;5620;53.570;9.718;2022-12-07T14:35:03;6.50;1.00
11132;DHT22;5620;53.570;9.718;2022-12-07T14:37:33;6.30;1.00
11132;DHT22;5620;53.570;9.718;2022-12-07T14:40:01;6.20;1.00
11132;DHT22;5620;53.570;9.718;2022-12-07T14:42:31;6.00;1.00
11132;DHT22;5620;53.570;9.718;2022-12-07T14:44:59;5.90;1.00
11132;DHT22;5620;53.570;9.718;2022-12-07T14:47:26;5.90;1.00
11132;DHT22;5620;53.570;9.718;2022-12-07T14:49:56;5.90;1.00
11132;DHT22;5620;53.570;9.718;2022-12-07T14:52:24;5.80;1.00
11132;DHT22;5620;53.570;9.718;2022-12-07T14:54:56;5.80;1.00
11132;DHT22;5620;53.570;9.718;2022-12-07T14:57:23;5.70;1.00
11132;DHT22;5620;53.570;9.718;2022-12-07T14:59:49;5.60;1.00
11132;DHT22;5620;53.570;9.718;2022-12-07T15:02:16;5.60;1.00
11132;DHT22;5620;53.570;9.718;2022-12-07T15:04:44;5.50;1.00
11132;DHT22;5620;53.570;9.718;2022-12-07T15:07:19;5.50;1.00
11132;DHT22;5620;53.570;9.718;2022-12-07T15:09:45;5.40;1.00
11132;DHT22;5620;53.570;9.718;2022-12-07T15:12:11;5.40;1.00
11132;DHT22;5620;53.570;9.718;2022-12-07T15:14:37;5.30;1.00
11132;DHT22;5620;53.570;9.718;2022-12-07T15:17:04;5.30;1.00
11132;DHT22;5620;53.570;9.718;2022-12-07T15:19:31;5.30;1.00
11132;DHT22;5620;53.570;9.718;2022-12-07T15:21:58;5.30;1.00
11132;DHT22;5620;53.570;9.718;2022-12-07T15:24:24;5.30;1.00
11132;DHT22;5620;53.570;9.718;2022-12-07T15:26:51;5.30;1.00
11132;DHT22;5620;53.570;9.718;2022-12-07T15:29:18;5.30;1.00
11132;DHT22;5620;53.570;9.718;2022-12-07T15:31:49;5.20;1.00
11132;DHT22;5620;53.570;9.718;2022-12-07T15:34:15;5.20;1.00
11132;DHT22;5620;53.570;9.718;2022-12-07T15:36:42;5.10;1.00
11132;DHT22;5620;53.570;9.718;2022-12-07T15:39:09;5.10;1.00
11132;DHT22;5620;53.570;9.718;2022-12-07T15:41:35;5.00;1.00
11132;DHT22;5620;53.570;9.718;2022-12-07T15:44:02;5.00;1.00
11132;DHT22;5620;53.570;9.718;2022-12-07T15:46:47;4.90;1.00
11132;DHT22;5620;53.570;9.718;2022-12-07T15:49:17;4.80;1.00
11132;DHT22;5620;53.570;9.718;2022-12-07T15:51:45;4.70;1.00
11132;DHT22;5620;53.570;9.718;2022-12-07T15:54:22;4.70;1.00
11132;DHT22;5620;53.570;9.718;2022-12-07T15:56:48;4.60;1.00
11132;DHT22;5620;53.570;9.718;2022-12-07T15:59:14;4.60;1.00
11132;DHT22;5620;53.570;9.718;2022-12-07T16:01:43;4.60;1.00
11132;DHT22;5620;53.570;9.718;2022-12-07T16:04:09;4.50;1.00
11132;DHT22;5620;53.570;9.718;2022-12-07T16:06:36;4.50;1.00
11132;DHT22;5620;53.570;9.718;2022-12-07T16:09:03;4.50;1.00
11132;DHT22;5620;53.570;9.718;2022-12-07T16:11:29;4.50;1.00
11132;DHT22;5620;53.570;9.718;2022-12-07T16:13:58;4.40;1.00
11132;DHT22;5620;53.570;9.718;2022-12-07T16:16:25;4.40;1.00
11132;DHT22;5620;53.570;9.718;2022-12-07T16:18:51;4.40;1.00
11132;DHT22;5620;53.570;9.718;2022-12-07T16:21:17;4.40;1.00
11132;DHT22;5620;53.570;9.718;2022-12-07T16:23:44;4.30;1.00
11132;DHT22;5620;53.570;9.718;2022-12-07T16:26:17;4.20;1.00
11132;DHT22;5620;53.570;9.718;2022-12-07T16:28:48;4.30;1.00
11132;DHT22;5620;53.570;9.718;2022-12-07T16:31:16;4.30;1.00
11132;DHT22;5620;53.570;9.718;2022-12-07T16:33:43;4.30;1.00
11132;DHT22;5620;53.570;9.718;2022-12-07T16:36:11;4.30;1.00
11132;DHT22;5620;53.570;9.718;2022-12-07T16:38:38;4.30;1.00
11132;DHT22;5620;53.570;9.718;2022-12-07T16:41:10;4.30;1.00
11132;DHT22;5620;53.570;9.718;2022-12-07T16:43:36;4.20;1.00
11132;DHT22;5620;53.570;9.718;2022-12-07T16:46:05;4.10;1.00
11132;DHT22;5620;53.570;9.718;2022-12-07T16:48:34;4.10;1.00
11132;DHT22;5620;53.570;9.718;2022-12-07T16:51:13;4.00;1.00
11132;DHT22;5620;53.570;9.718;2022-12-07T16:53:45;4.00;1.00
11132;DHT22;5620;53.570;9.718;2022-12-07T16:56:16;4.00;1.00
11132;DHT22;5620;53.570;9.718;2022-12-07T16:58:43;4.00;1.00
11132;DHT22;5620;53.570;9.718;2022-12-07T17:01:12;4.10;1.00
11132;DHT22;5620;53.570;9.718;2022-12-07T17:03:38;4.10;1.00
11132;DHT22;5620;53.570;9.718;2022-12-07T17:06:17;4.00;1.00
11132;DHT22;5620;53.570;9.718;2022-12-07T17:08:44;4.00;1.00
11132;DHT22;5620;53.570;9.718;2022-12-07T17:11:16;4.00;1.00
11132;DHT22;5620;53.570;9.718;2022-12-07T17:13:44;3.90;1.00
11132;DHT22;5620;53.570;9.718;2022-12-07T17:16:10;3.90;1.00
11132;DHT22;5620;53.570;9.718;2022-12-07T17:18:37;3.90;1.00
11132;DHT22;5620;53.570;9.718;2022-12-07T17:21:05;3.80;1.00
11132;DHT22;5620;53.570;9.718;2022-12-07T17:23:33;3.80;1.00
11132;DHT22;5620;53.570;9.718;2022-12-07T17:26:10;3.80;1.00
11132;DHT22;5620;53.570;9.718;2022-12-07T17:28:36;3.80;1.00
11132;DHT22;5620;53.570;9.718;2022-12-07T17:31:08;3.70;1.00
11132;DHT22;5620;53.570;9.718;2022-12-07T17:33:36;3.80;1.00
11132;DHT22;5620;53.570;9.718;2022-12-07T17:36:16;3.70;1.00
11132;DHT22;5620;53.570;9.718;2022-12-07T17:38:43;3.60;1.00
11132;DHT22;5620;53.570;9.718;2022-12-07T17:41:16;3.70;1.00
11132;DHT22;5620;53.570;9.718;2022-12-07T17:43:41;3.60;1.00
11132;DHT22;5620;53.570;9.718;2022-12-07T17:46:10;3.60;1.00
11132;DHT22;5620;53.570;9.718;2022-12-07T17:48:36;3.60;1.00
11132;DHT22;5620;53.570;9.718;2022-12-07T17:51:03;3.50;1.00
11132;DHT22;5620;53.570;9.718;2022-12-07T17:53:30;3.40;1.00
11132;DHT22;5620;53.570;9.718;2022-12-07T17:55:56;3.40;1.00
11132;DHT22;5620;53.570;9.718;2022-12-07T17:58:21;3.30;1.00
11132;DHT22;5620;53.570;9.718;2022-12-07T18:00:48;3.20;1.00
11132;DHT22;5620;53.570;9.718;2022-12-07T18:03:13;3.20;1.00
11132;DHT22;5620;53.570;9.718;2022-12-07T18:05:44;3.10;1.00
11132;DHT22;5620;53.570;9.718;2022-12-07T18:08:11;3.10;1.00
11132;DHT22;5620;53.570;9.718;2022-12-07T18:10:38;3.00;1.00
11132;DHT22;5620;53.570;9.718;2022-12-07T18:13:09;3.10;1.00
11132;DHT22;5620;53.570;9.718;2022-12-07T18:15:35;3.10;1.00
11132;DHT22;5620;53.570;9.718;2022-12-07T18:18:01;3.10;1.00
11132;DHT22;5620;53.570;9.718;2022-12-07T18:20:28;3.10;1.00
11132;DHT22;5620;53.570;9.718;2022-12-07T18:22:55;3.20;1.00
11132;DHT22;5620;53.570;9.718;2022-12-07T18:25:20;3.20;1.00
11132;DHT22;5620;53.570;9.718;2022-12-07T18:27:46;3.20;1.00
11132;DHT22;5620;53.570;9.718;2022-12-07T18:30:14;3.30;1.00
11132;DHT22;5620;53.570;9.718;2022-12-07T18:32:40;3.30;1.00
11132;DHT22;5620;53.570;9.718;2022-12-07T18:35:06;3.30;1.00
11132;DHT22;5620;53.570;9.718;2022-12-07T18:37:34;3.40;1.00
11132;DHT22;5620;53.570;9.718;2022-12-07T18:40:01;3.30;1.00
11132;DHT22;5620;53.570;9.718;2022-12-07T18:42:29;3.30;1.00
11132;DHT22;5620;53.570;9.718;2022-12-07T18:44:56;3.30;1.00
11132;DHT22;5620;53.570;9.718;2022-12-07T18:47:24;3.40;1.00
11132;DHT22;5620;53.570;9.718;2022-12-07T18:49:51;3.40;1.00
11132;DHT22;5620;53.570;9.718;2022-12-07T18:52:16;3.40;1.00